Terminal Aerodrome Forecast
Issued by NWS San Angelo, TX

Home | Current Version | Previous Version | Text Only | Print | Product List | Glossary On
Versions: 1 2 3 4 5 6 7 8 9 10 11 12 13 14 15 16 17 18 19 20 21 22
000
FTUS44 KSJT 211134
TAFSJT
TAF
KSJT 211134Z 2112/2212 VRB06KT P6SM SCT025 SCT150
     FM211500 21014G20KT P6SM SCT150
     FM211800 24024G30KT P6SM VCSH BKN150
     FM220000 24016G22KT P6SM OVC150
     FM220600 26030G40KT P6SM SKC=

USA.gov is the U.S. government's official web portal to all federal, state and local government web resources and services.